Date,TemperatureHighF,TemperatureAvgF,TemperatureLowF,DewpointHighF,DewpointAvgF,DewpointLowF,HumidityHigh,HumidityAvg,HumidityLow,PressureMaxIn,PressureMinIn,WindSpeedMaxMPH,WindSpeedAvgMPH,GustSpeedMaxMPH,PrecipitationSumIn
2013-2-1,49,44,42,43,40,37,97,87,66,30.17,29.38,9,1,23,0.31
2013-2-2,46,38,32,45,36,30,97,92,80,29.91,29.29,4,1,19,0.83
2013-2-3,36,32,30,33,29,28,93,89,78,30.27,29.91,2,0,7,0.27
2013-2-4,43,36,32,38,33,28,95,91,77,30.22,30.10,2,0,8,0.22
2013-2-5,49,42,33,40,35,31,96,77,53,30.10,29.66,11,4,27,0.37
2013-2-6,37,33,28,33,30,27,95,91,82,29.69,29.48,4,0,11,0.48
2013-2-7,34,32,30,30,28,26,93,87,78,29.99,29.69,3,0,8,0.11
2013-2-8,36,31,27,28,26,22,93,82,62,30.03,29.93,2,0,7,0.04
2013-2-9,33,26,18,25,23,15,92,86,68,30.12,30.03,4,0,8,0.05
2013-2-10,30,20,13,21,16,11,91,84,66,30.11,29.73,2,0,6,0.01
2013-2-11,33,28,24,28,25,20,94,89,79,29.73,29.55,1,0,3,0.01
2013-2-12,30,28,27,27,26,25,94,91,85,30.03,29.59,1,0,3,0.01
2013-2-13,30,28,23,26,24,20,93,87,78,30.30,30.03,2,0,5,0.01
2013-2-14,32,23,11,25,20,9,91,85,70,30.30,30.11,2,0,5,0.03
2013-2-15,38,32,28,35,30,25,96,94,89,30.26,30.06,2,0,3,0.37
2013-2-16,42,35,30,35,33,28,97,90,72,30.28,30.22,1,0,3,0.07
2013-2-17,38,34,30,33,31,29,95,88,76,30.22,30.11,1,0,6,0.01
2013-2-18,42,34,27,31,29,24,92,82,60,30.14,30.08,2,0,7,0.00
2013-2-19,44,32,21,31,25,19,93,77,50,30.15,30.02,2,0,4,0.01
2013-2-20,37,34,31,33,30,24,93,86,76,30.08,30.03,3,0,8,0.01
2013-2-21,31,29,28,25,24,22,84,80,76,30.04,29.94,2,1,10,0.00
2013-2-22,27,25,23,21,20,19,87,80,71,29.80,29.76,3,1,11,0.00
2013-2-23,28,25,23,21,19,17,86,76,63,29.86,29.72,3,0,8,0.01
2013-2-24,27,25,21,23,22,18,92,87,77,30.02,29.85,2,0,5,0.01
2013-2-25,29,24,18,22,20,15,92,83,71,30.23,30.01,3,0,6,0.01
2013-2-26,32,23,14,26,19,12,92,84,72,30.35,30.23,3,0,5,0.01
2013-2-27,36,33,29,32,29,26,91,85,80,30.36,30.30,1,0,5,0.01
2013-2-28,39,35,30,31,29,28,92,82,70,30.28,30.24,2,0,7,0.00